Time;durP1;ratioP1;P1;durP2;ratioP2;P2;SDS_P1;SDS_P2;PMS_P1;PMS_P2;Temp;Humidity;BMP_temperature;BMP_pressure;BME280_temperature;BME280_humidity;BME280_pressure;Samples;Min_cycle;Max_cycle;Signal;HPM_P1;HPM_P2
2023/10/29 00:01:48;;;;;;;3.08;0.80;;;11.10;98.30;;;;;;6221595;28;20058;-84
2023/10/29 00:04:50;;;;;;;2.08;0.65;;;11.10;98.30;;;;;;6220317;28;20080;-84
2023/10/29 00:07:52;;;;;;;2.33;0.70;;;11.10;98.30;;;;;;6221552;28;20061;-84
2023/10/29 00:10:53;;;;;;;3.58;0.70;;;11.10;98.30;;;;;;6220335;28;20061;-84
2023/10/29 00:13:56;;;;;;;8.10;0.63;;;11.10;98.30;;;;;;6219835;28;20057;-84
2023/10/29 00:16:57;;;;;;;2.67;0.68;;;11.00;98.20;;;;;;6220812;28;20058;-85
2023/10/29 00:20:06;;;;;;;3.88;0.80;;;11.10;98.20;;;;;;6220454;28;20058;-84
2023/10/29 00:23:07;;;;;;;1.60;0.43;;;11.00;98.00;;;;;;6172759;28;20109;-84
2023/10/29 00:26:09;;;;;;;2.80;0.70;;;11.00;98.20;;;;;;6220474;28;20490;-84
2023/10/29 00:29:11;;;;;;;2.15;0.60;;;11.00;97.90;;;;;;6217714;28;20053;-85
2023/10/29 00:32:14;;;;;;;2.78;0.70;;;10.90;97.90;;;;;;6219906;28;20057;-85
2023/10/29 00:35:16;;;;;;;3.17;0.70;;;10.90;97.90;;;;;;6219064;28;20076;-84
2023/10/29 00:38:18;;;;;;;2.63;0.70;;;10.80;97.90;;;;;;6219309;28;20137;-84
2023/10/29 00:41:20;;;;;;;2.50;0.70;;;10.70;97.80;;;;;;6220701;28;20058;-84
2023/10/29 00:44:21;;;;;;;2.67;0.80;;;10.70;98.00;;;;;;6195773;28;20062;-83
2023/10/29 00:47:23;;;;;;;3.72;0.90;;;10.80;98.10;;;;;;6219430;28;20099;-84
2023/10/29 00:50:25;;;;;;;4.75;1.00;;;10.80;98.20;;;;;;6218642;28;20058;-83
2023/10/29 00:53:26;;;;;;;2.38;0.80;;;10.80;98.00;;;;;;6219948;28;20184;-83
2023/10/29 00:56:29;;;;;;;6.45;1.00;;;10.80;98.00;;;;;;6218622;28;20793;-84
2023/10/29 00:59:31;;;;;;;5.20;0.90;;;10.80;97.90;;;;;;6217163;28;20096;-82
2023/10/29 01:02:33;;;;;;;4.43;0.93;;;10.70;97.90;;;;;;6219517;28;20207;-82
2023/10/29 01:05:35;;;;;;;5.25;1.02;;;10.70;97.80;;;;;;6218011;28;20422;-83
2023/10/29 01:08:36;;;;;;;1.77;0.73;;;10.60;97.80;;;;;;6219759;28;20054;-82
2023/10/29 01:11:42;;;;;;;5.70;0.93;;;10.50;97.80;;;;;;6218720;28;20054;-83
2023/10/29 01:14:44;;;;;;;4.35;1.00;;;10.50;97.80;;;;;;6192369;28;20087;-83
2023/10/29 01:17:46;;;;;;;5.00;1.17;;;10.60;97.80;;;;;;6228527;28;20065;-82
2023/10/29 01:20:47;;;;;;;3.42;0.90;;;10.60;98.00;;;;;;6218025;28;20511;-83
2023/10/29 01:23:49;;;;;;;2.55;0.85;;;10.60;98.00;;;;;;6219259;28;20065;-83
2023/10/29 01:26:51;;;;;;;3.17;0.85;;;10.60;98.00;;;;;;6217359;28;20065;-82
2023/10/29 01:29:53;;;;;;;4.28;0.80;;;10.60;97.90;;;;;;6216004;28;20081;-83
2023/10/29 01:32:54;;;;;;;6.55;1.10;;;10.60;97.80;;;;;;6219522;28;20088;-83
2023/10/29 01:35:56;;;;;;;3.45;0.60;;;10.60;97.80;;;;;;6219126;28;20064;-83
2023/10/29 01:38:58;;;;;;;3.13;0.80;;;10.50;97.80;;;;;;6217943;28;20390;-83
2023/10/29 01:41:59;;;;;;;6.70;0.77;;;10.50;97.80;;;;;;6219366;28;20062;-82
2023/10/29 01:45:03;;;;;;;4.03;0.80;;;10.50;97.80;;;;;;6192998;28;20051;-82
2023/10/29 01:48:05;;;;;;;3.08;0.70;;;10.40;97.80;;;;;;6217719;28;20058;-82
2023/10/29 01:51:07;;;;;;;2.75;0.70;;;10.30;97.70;;;;;;6217570;28;20164;-81
2023/10/29 01:54:09;;;;;;;3.10;1.00;;;10.30;97.60;;;;;;6217958;28;20411;-83
2023/10/29 01:57:10;;;;;;;6.03;0.90;;;10.30;97.70;;;;;;6219358;28;20065;-83
2023/10/29 02:00:12;;;;;;;8.43;1.10;;;10.30;97.70;;;;;;6214018;28;20461;-83
2023/10/29 02:03:14;;;;;;;3.80;1.00;;;10.20;97.90;;;;;;6200414;28;20053;-82
2023/10/29 02:06:16;;;;;;;6.43;0.90;;;10.20;97.70;;;;;;6219986;28;20058;-82
2023/10/29 02:09:18;;;;;;;4.70;0.88;;;10.10;97.70;;;;;;6222821;28;20053;-82
2023/10/29 02:12:20;;;;;;;2.33;0.80;;;10.10;97.70;;;;;;6222700;28;20509;-83
2023/10/29 02:15:21;;;;;;;3.25;0.80;;;10.10;97.50;;;;;;6210010;28;20620;-83
2023/10/29 02:18:23;;;;;;;5.40;1.00;;;10.10;97.60;;;;;;6207784;28;20058;-83
2023/10/29 02:21:25;;;;;;;3.55;0.85;;;10.00;97.40;;;;;;6237072;28;20061;-83
2023/10/29 02:24:26;;;;;;;7.03;1.25;;;10.10;97.30;;;;;;6232721;28;20062;-82
2023/10/29 02:27:28;;;;;;;5.38;1.17;;;10.00;97.40;;;;;;6227112;28;20615;-82
2023/10/29 02:30:30;;;;;;;10.85;1.10;;;10.00;97.20;;;;;;6232123;28;20058;-82
2023/10/29 02:33:31;;;;;;;7.22;1.00;;;9.90;97.30;;;;;;6234241;28;20058;-82
2023/10/29 02:36:33;;;;;;;7.22;1.30;;;10.00;96.90;;;;;;6225011;28;20103;-82
2023/10/29 02:39:35;;;;;;;6.22;1.10;;;9.90;97.40;;;;;;6233781;28;20050;-83
2023/10/29 02:42:36;;;;;;;6.75;1.08;;;9.90;97.30;;;;;;6235662;28;20054;-82
2023/10/29 02:45:38;;;;;;;8.95;1.10;;;9.80;97.20;;;;;;6180210;28;20517;-83
2023/10/29 02:48:40;;;;;;;9.85;1.30;;;9.80;97.20;;;;;;6200102;28;20047;-83
2023/10/29 02:51:41;;;;;;;9.05;1.50;;;9.80;97.10;;;;;;6232628;28;20057;-83
2023/10/29 02:54:43;;;;;;;6.68;1.20;;;9.90;97.10;;;;;;6231961;28;20520;-82
2023/10/29 02:57:44;;;;;;;7.60;1.02;;;9.90;97.00;;;;;;6230615;28;20420;-83
2023/10/29 03:00:47;;;;;;;6.43;1.10;;;10.00;96.70;;;;;;6225041;28;20172;-82
2023/10/29 03:03:49;;;;;;;6.88;1.13;;;10.00;96.60;;;;;;6231218;28;20053;-83
2023/10/29 03:06:51;;;;;;;7.15;1.08;;;10.10;96.70;;;;;;6214695;28;20155;-83
2023/10/29 03:09:52;;;;;;;6.68;1.10;;;10.20;96.30;;;;;;6221556;28;20054;-83
2023/10/29 03:12:54;;;;;;;8.38;1.30;;;10.30;96.40;;;;;;6221339;28;20061;-83
2023/10/29 03:15:56;;;;;;;7.78;1.40;;;10.30;96.40;;;;;;6222452;28;20065;-82
2023/10/29 03:18:58;;;;;;;6.10;1.00;;;10.40;96.20;;;;;;6221645;28;20143;-83
2023/10/29 03:22:01;;;;;;;4.88;0.80;;;10.30;95.80;;;;;;6220963;28;20053;-81
2023/10/29 03:25:03;;;;;;;10.85;1.45;;;10.40;95.60;;;;;;6229470;28;20115;-84
2023/10/29 03:28:05;;;;;;;7.13;1.23;;;10.30;95.60;;;;;;6229381;28;20100;-83
2023/10/29 03:31:06;;;;;;;6.15;1.10;;;10.30;95.60;;;;;;6224278;28;20054;-82
2023/10/29 03:34:08;;;;;;;3.75;0.80;;;10.30;95.30;;;;;;6221413;28;20437;-83
2023/10/29 03:37:10;;;;;;;5.50;1.00;;;10.30;95.60;;;;;;6222341;28;20417;-83
2023/10/29 03:40:11;;;;;;;4.70;1.02;;;10.20;95.80;;;;;;6219874;28;20053;-82
2023/10/29 03:43:13;;;;;;;4.80;0.95;;;10.20;96.20;;;;;;6220393;28;20054;-83
2023/10/29 03:46:14;;;;;;;3.85;0.90;;;10.10;96.10;;;;;;6222500;28;20057;-84
2023/10/29 03:49:16;;;;;;;3.50;0.95;;;10.10;96.10;;;;;;6220940;28;20482;-84
2023/10/29 03:52:18;;;;;;;5.82;1.00;;;10.00;95.90;;;;;;6221422;28;20054;-84
2023/10/29 03:55:20;;;;;;;5.05;0.93;;;9.90;96.10;;;;;;6222253;28;20050;-84
2023/10/29 03:58:21;;;;;;;5.93;0.90;;;9.70;96.10;;;;;;6218840;28;20049;-83
2023/10/29 04:01:23;;;;;;;8.05;1.25;;;9.60;96.30;;;;;;6220058;28;20748;-83
2023/10/29 04:04:25;;;;;;;5.93;1.13;;;9.50;96.30;;;;;;6220882;28;20056;-83
2023/10/29 04:07:27;;;;;;;4.70;0.80;;;9.50;96.30;;;;;;6194883;28;20064;-83
2023/10/29 04:10:28;;;;;;;7.18;0.90;;;9.40;96.40;;;;;;6218759;28;20512;-83
2023/10/29 04:13:30;;;;;;;5.22;1.00;;;9.40;96.50;;;;;;6218101;28;20060;-83
2023/10/29 04:16:32;;;;;;;4.13;0.80;;;9.30;96.60;;;;;;6220808;28;20050;-83
2023/10/29 04:19:34;;;;;;;4.72;0.77;;;9.30;96.50;;;;;;6225839;28;20054;-83
2023/10/29 04:22:36;;;;;;;4.63;0.90;;;9.30;96.50;;;;;;6226170;28;20056;-82
2023/10/29 04:25:38;;;;;;;5.88;1.00;;;9.30;96.30;;;;;;6220342;28;20046;-83
2023/10/29 04:28:40;;;;;;;5.18;1.08;;;9.20;96.20;;;;;;6217224;28;20060;-83
2023/10/29 04:31:41;;;;;;;6.18;1.02;;;9.30;96.20;;;;;;6219487;28;20057;-83
2023/10/29 04:34:43;;;;;;;3.88;0.80;;;9.20;96.10;;;;;;6219066;28;20053;-84
2023/10/29 04:37:45;;;;;;;6.20;1.00;;;9.30;96.20;;;;;;6218974;28;20143;-83
2023/10/29 04:40:46;;;;;;;2.80;0.68;;;9.30;95.90;;;;;;6219040;28;20061;-83
2023/10/29 04:43:48;;;;;;;5.35;1.00;;;9.30;95.80;;;;;;6217629;28;20046;-82
2023/10/29 04:46:50;;;;;;;6.95;1.20;;;9.30;95.60;;;;;;6218639;28;20061;-83
2023/10/29 04:49:52;;;;;;;5.53;1.20;;;9.30;95.80;;;;;;6218975;28;20057;-83
2023/10/29 04:52:53;;;;;;;6.55;1.10;;;9.20;95.90;;;;;;6218645;28;20064;-83
2023/10/29 04:55:55;;;;;;;5.72;1.10;;;9.20;96.40;;;;;;6218630;28;20049;-83
2023/10/29 04:58:56;;;;;;;6.22;1.27;;;9.00;96.40;;;;;;6213460;28;20065;-84
2023/10/29 05:01:58;;;;;;;4.82;1.13;;;9.10;96.60;;;;;;6217757;28;20050;-84
2023/10/29 05:05:00;;;;;;;6.95;1.00;;;9.00;96.70;;;;;;6213983;28;20056;-84
2023/10/29 05:08:01;;;;;;;8.45;0.90;;;9.00;97.00;;;;;;6194428;28;20054;-83
2023/10/29 05:11:03;;;;;;;9.63;1.23;;;9.00;97.00;;;;;;6194419;28;20172;-82
2023/10/29 05:14:04;;;;;;;6.57;1.10;;;9.00;97.10;;;;;;6217214;28;20054;-83
2023/10/29 05:17:06;;;;;;;8.43;1.35;;;9.00;97.00;;;;;;6219736;28;20058;-83
2023/10/29 05:20:09;;;;;;;11.85;1.40;;;9.00;97.10;;;;;;6218300;28;20053;-83
2023/10/29 05:23:10;;;;;;;9.63;1.35;;;9.00;97.10;;;;;;6218563;28;20049;-83
2023/10/29 05:26:12;;;;;;;12.40;1.20;;;9.00;96.90;;;;;;6218604;28;20053;-83
2023/10/29 05:29:14;;;;;;;9.30;1.25;;;8.90;97.10;;;;;;6216665;28;20057;-83
2023/10/29 05:32:15;;;;;;;5.25;1.40;;;8.90;97.30;;;;;;6218239;28;20065;-83
2023/10/29 05:35:17;;;;;;;13.73;1.95;;;8.90;97.30;;;;;;6218420;28;20097;-84
2023/10/29 05:38:19;;;;;;;12.50;1.63;;;8.90;97.40;;;;;;6217947;28;20053;-83
2023/10/29 05:41:20;;;;;;;10.82;1.50;;;8.80;97.30;;;;;;6220418;28;20053;-84
2023/10/29 05:44:22;;;;;;;8.68;1.45;;;8.80;97.70;;;;;;6222068;28;20057;-84
2023/10/29 05:47:23;;;;;;;8.15;1.42;;;8.70;97.60;;;;;;6222869;28;20421;-83
2023/10/29 05:50:25;;;;;;;9.35;1.70;;;8.80;97.80;;;;;;6222764;28;20061;-84
2023/10/29 05:53:27;;;;;;;11.35;1.70;;;8.80;97.80;;;;;;6222588;28;20066;-84
2023/10/29 05:56:29;;;;;;;11.75;1.65;;;8.80;97.90;;;;;;6222285;28;20057;-84
2023/10/29 05:59:31;;;;;;;13.65;2.17;;;8.90;98.10;;;;;;6220816;28;20064;-83
2023/10/29 06:02:33;;;;;;;10.73;2.05;;;9.00;98.00;;;;;;6222114;28;20674;-84
2023/10/29 06:05:35;;;;;;;13.63;1.80;;;9.10;97.90;;;;;;6212740;28;20085;-83
2023/10/29 06:08:37;;;;;;;12.40;1.70;;;9.20;98.10;;;;;;6197369;28;20086;-84
2023/10/29 06:11:38;;;;;;;9.02;1.73;;;9.10;97.90;;;;;;6225689;28;20113;-84
2023/10/29 06:14:40;;;;;;;11.48;2.00;;;9.10;97.90;;;;;;6223701;28;20054;-84
2023/10/29 06:17:42;;;;;;;11.85;1.70;;;9.10;98.10;;;;;;6222908;28;20131;-83
2023/10/29 06:20:44;;;;;;;7.43;1.35;;;9.20;98.20;;;;;;6221997;28;20054;-81
2023/10/29 06:23:46;;;;;;;10.75;1.40;;;9.20;97.90;;;;;;6222400;28;20093;-83
2023/10/29 06:26:47;;;;;;;14.05;1.40;;;9.30;97.90;;;;;;6222310;28;20481;-83
2023/10/29 06:29:49;;;;;;;12.95;2.20;;;9.30;97.90;;;;;;6220939;28;20148;-82
2023/10/29 06:32:51;;;;;;;10.27;1.92;;;9.30;97.90;;;;;;6221526;28;20050;-82
2023/10/29 06:35:57;;;;;;;17.33;1.75;;;9.40;97.50;;;;;;6222865;28;20046;-82
2023/10/29 06:38:59;;;;;;;9.05;1.50;;;9.50;97.40;;;;;;6189755;28;20137;-81
2023/10/29 06:42:00;;;;;;;9.27;1.45;;;9.50;97.40;;;;;;6237161;28;20167;-83
2023/10/29 06:45:02;;;;;;;10.60;1.50;;;9.50;97.00;;;;;;6218424;28;20077;-82
2023/10/29 06:48:04;;;;;;;9.23;1.50;;;9.50;97.00;;;;;;6222047;28;20064;-84
2023/10/29 06:51:05;;;;;;;15.70;1.80;;;9.50;96.90;;;;;;6220762;28;20049;-82
2023/10/29 06:54:07;;;;;;;12.70;1.60;;;9.50;97.10;;;;;;6221803;28;20533;-83
2023/10/29 06:57:09;;;;;;;9.20;1.90;;;9.50;97.00;;;;;;6221342;28;20050;-81
2023/10/29 07:00:10;;;;;;;16.13;1.45;;;9.50;97.00;;;;;;6221067;28;20065;-82
2023/10/29 07:03:13;;;;;;;11.63;1.92;;;9.50;97.00;;;;;;6222349;28;20054;-83
2023/10/29 07:06:16;;;;;;;10.30;1.40;;;9.60;97.00;;;;;;6207803;28;20086;-83
2023/10/29 07:09:18;;;;;;;9.90;1.20;;;9.60;96.50;;;;;;6220752;28;20521;-83
2023/10/29 07:12:19;;;;;;;10.38;1.45;;;9.60;96.40;;;;;;6221339;28;20057;-83
2023/10/29 07:15:22;;;;;;;10.48;1.65;;;9.60;95.90;;;;;;6221011;28;20058;-82
2023/10/29 07:18:23;;;;;;;9.88;1.55;;;9.60;95.60;;;;;;6221327;28;20046;-83
2023/10/29 07:21:25;;;;;;;10.48;1.67;;;9.70;95.80;;;;;;6220814;28;20092;-83
2023/10/29 07:24:29;;;;;;;8.98;1.13;;;9.60;95.80;;;;;;6222314;28;20045;-81
2023/10/29 07:27:31;;;;;;;12.00;1.63;;;9.70;95.90;;;;;;6222215;28;20061;-83
2023/10/29 07:30:32;;;;;;;15.20;2.13;;;9.70;96.00;;;;;;6222660;28;20382;-85
2023/10/29 07:33:34;;;;;;;13.80;1.20;;;9.80;95.90;;;;;;6226360;28;20056;-84
2023/10/29 07:36:36;;;;;;;6.93;1.10;;;9.80;95.30;;;;;;6223797;28;20050;-85
2023/10/29 07:39:38;;;;;;;6.38;1.15;;;9.80;94.90;;;;;;6226086;28;20564;-86
2023/10/29 07:42:40;;;;;;;11.63;1.00;;;9.90;94.80;;;;;;6223141;28;20065;-82
2023/10/29 07:45:41;;;;;;;6.82;1.05;;;9.90;94.90;;;;;;6221821;28;20469;-84
2023/10/29 07:48:43;;;;;;;9.55;1.13;;;9.90;94.80;;;;;;6176937;28;20580;-87
2023/10/29 07:51:44;;;;;;;9.43;1.20;;;9.90;94.70;;;;;;6241308;28;20061;-88
2023/10/29 07:54:46;;;;;;;11.52;1.10;;;9.90;94.90;;;;;;6225553;28;20049;-88
2023/10/29 07:57:48;;;;;;;6.80;1.15;;;10.00;94.80;;;;;;6224223;28;20046;-88
2023/10/29 08:00:50;;;;;;;5.95;1.10;;;10.10;94.40;;;;;;6222713;28;20053;-87
2023/10/29 08:03:52;;;;;;;12.70;0.93;;;10.20;94.70;;;;;;6189488;28;20068;-83
2023/10/29 08:06:54;;;;;;;7.25;1.27;;;10.30;94.50;;;;;;6216284;28;20062;-83
2023/10/29 08:09:59;;;;;;;8.02;1.20;;;10.40;94.20;;;;;;6221026;28;20049;-83
2023/10/29 08:13:03;;;;;;;8.50;1.08;;;10.40;94.70;;;;;;6217534;28;20045;-84
2023/10/29 08:16:05;;;;;;;9.45;2.20;;;10.50;94.20;;;;;;6221034;28;20424;-84
2023/10/29 08:19:07;;;;;;;10.20;1.38;;;10.50;93.50;;;;;;6221456;28;20060;-85
2023/10/29 08:22:08;;;;;;;5.10;1.00;;;10.60;94.20;;;;;;6220784;28;20050;-83
2023/10/29 08:25:10;;;;;;;10.63;1.15;;;10.70;94.20;;;;;;6219221;28;20053;-82
2023/10/29 08:28:12;;;;;;;11.18;1.42;;;10.70;93.90;;;;;;6218686;28;20505;-84
2023/10/29 08:31:14;;;;;;;9.77;1.80;;;10.80;93.60;;;;;;6220909;28;20106;-83
2023/10/29 08:34:16;;;;;;;7.63;1.52;;;10.80;93.60;;;;;;6170584;28;20081;-83
2023/10/29 08:37:20;;;;;;;7.47;1.23;;;10.80;94.10;;;;;;6234104;28;20053;-83
2023/10/29 08:40:22;;;;;;;6.93;1.10;;;10.80;93.20;;;;;;6220254;28;20057;-90
2023/10/29 08:43:23;;;;;;;11.27;2.53;;;10.80;93.90;;;;;;6218379;28;20065;-82
2023/10/29 08:46:25;;;;;;;9.52;2.10;;;10.80;94.20;;;;;;6220918;28;20112;-82
2023/10/29 08:49:27;;;;;;;6.05;1.38;;;10.80;94.30;;;;;;6218680;28;20057;-81
2023/10/29 08:52:28;;;;;;;9.85;1.88;;;10.90;94.50;;;;;;6218646;28;20057;-81
2023/10/29 08:55:30;;;;;;;9.18;1.48;;;11.10;94.90;;;;;;6218268;28;20068;-82
2023/10/29 08:58:32;;;;;;;10.35;1.45;;;11.10;93.90;;;;;;6216363;28;20057;-82
2023/10/29 09:01:33;;;;;;;11.00;1.90;;;11.10;93.70;;;;;;6218339;28;20053;-81
2023/10/29 09:04:36;;;;;;;8.45;1.50;;;11.40;93.70;;;;;;6219698;28;20079;-83
2023/10/29 09:07:38;;;;;;;8.85;1.63;;;11.70;93.30;;;;;;6194053;28;20076;-83
2023/10/29 09:10:42;;;;;;;8.93;1.15;;;12.40;90.70;;;;;;6226278;28;20053;-91
2023/10/29 09:13:45;;;;;;;12.65;1.92;;;12.60;89.90;;;;;;6223209;28;20061;-91
2023/10/29 09:16:48;;;;;;;7.88;1.40;;;12.40;88.80;;;;;;6225587;28;20493;-85
2023/10/29 09:19:49;;;;;;;7.70;1.27;;;12.30;91.30;;;;;;6226168;28;20061;-84
2023/10/29 09:22:51;;;;;;;12.75;1.70;;;12.20;90.70;;;;;;6227705;28;20073;-87
2023/10/29 09:25:52;;;;;;;13.30;2.30;;;12.10;91.50;;;;;;6232397;28;20061;-81
2023/10/29 09:28:54;;;;;;;9.63;1.25;;;12.10;91.40;;;;;;6216754;28;20056;-83
2023/10/29 09:31:56;;;;;;;4.97;1.10;;;12.20;92.90;;;;;;6220047;28;20057;-83
2023/10/29 09:34:58;;;;;;;8.38;1.63;;;12.30;91.70;;;;;;6218481;28;20133;-83
2023/10/29 09:37:59;;;;;;;7.85;1.40;;;12.40;92.20;;;;;;6218557;28;20155;-82
2023/10/29 09:41:01;;;;;;;7.75;1.30;;;12.40;92.80;;;;;;6217643;28;20065;-82
2023/10/29 09:44:03;;;;;;;6.43;1.10;;;12.40;91.80;;;;;;6214419;28;20057;-82
2023/10/29 09:47:04;;;;;;;8.40;1.70;;;12.40;92.10;;;;;;6217650;28;20413;-82
2023/10/29 09:50:06;;;;;;;8.63;1.30;;;12.40;92.90;;;;;;6219478;28;20073;-82
2023/10/29 09:53:08;;;;;;;11.95;1.60;;;12.50;92.70;;;;;;6222121;28;20077;-83
2023/10/29 09:56:09;;;;;;;11.10;1.40;;;12.50;92.70;;;;;;6218169;28;20089;-82
2023/10/29 09:59:11;;;;;;;11.63;1.38;;;12.50;92.60;;;;;;6216541;28;20053;-82
2023/10/29 10:02:12;;;;;;;11.23;1.75;;;12.60;93.00;;;;;;6217847;28;20057;-82
2023/10/29 10:05:14;;;;;;;9.85;1.50;;;12.60;92.60;;;;;;6211441;28;20085;-84
2023/10/29 10:08:16;;;;;;;12.77;1.52;;;12.60;92.90;;;;;;6194646;28;20062;-83
2023/10/29 10:11:17;;;;;;;12.43;1.45;;;12.60;92.90;;;;;;6217480;28;20052;-83
2023/10/29 10:14:19;;;;;;;8.88;1.45;;;12.60;93.30;;;;;;6215192;28;20057;-82
2023/10/29 10:17:21;;;;;;;12.55;1.60;;;12.60;93.30;;;;;;6217439;28;20050;-82
2023/10/29 10:20:24;;;;;;;9.57;1.63;;;12.60;93.30;;;;;;6217135;28;20822;-83
2023/10/29 10:23:25;;;;;;;13.25;2.08;;;12.70;94.00;;;;;;6217376;28;20054;-82
2023/10/29 10:26:27;;;;;;;9.57;1.73;;;12.70;94.00;;;;;;6218688;28;20061;-84
2023/10/29 10:29:29;;;;;;;15.15;2.20;;;12.80;94.00;;;;;;6220931;28;20057;-83
2023/10/29 10:32:30;;;;;;;8.80;2.17;;;12.80;94.00;;;;;;6224837;28;20082;-84
2023/10/29 10:35:32;;;;;;;10.68;1.40;;;12.90;94.20;;;;;;6225834;28;20706;-83
2023/10/29 10:38:34;;;;;;;13.50;2.50;;;12.90;94.00;;;;;;6224150;28;20060;-82
2023/10/29 10:41:35;;;;;;;15.57;2.30;;;12.80;93.60;;;;;;6221389;28;20073;-81
2023/10/29 10:44:37;;;;;;;17.52;1.90;;;12.70;92.00;;;;;;6220800;28;20057;-83
2023/10/29 10:47:39;;;;;;;11.20;2.00;;;12.60;92.70;;;;;;6221450;28;20050;-83
2023/10/29 10:50:41;;;;;;;11.57;1.77;;;12.60;93.60;;;;;;6222612;28;20057;-82
2023/10/29 10:53:42;;;;;;;17.10;2.22;;;12.40;92.90;;;;;;6221374;28;20062;-82
2023/10/29 10:56:44;;;;;;;12.98;2.60;;;12.30;94.30;;;;;;6220563;28;20053;-81
2023/10/29 10:59:46;;;;;;;14.63;2.28;;;12.20;95.50;;;;;;6219316;28;20061;-83
2023/10/29 11:02:47;;;;;;;8.75;1.70;;;12.00;95.10;;;;;;6221752;28;20050;-84
2023/10/29 11:05:49;;;;;;;10.02;1.67;;;11.70;94.00;;;;;;6216006;28;20050;-86
2023/10/29 11:08:51;;;;;;;9.15;1.48;;;11.20;93.70;;;;;;6223117;28;20168;-84
2023/10/29 11:11:53;;;;;;;7.85;1.45;;;11.00;95.00;;;;;;6222421;28;20077;-85
2023/10/29 11:14:55;;;;;;;5.82;1.40;;;10.90;95.10;;;;;;6220370;28;20066;-85
2023/10/29 11:18:00;;;;;;;11.27;2.00;;;10.90;96.20;;;;;;6223557;28;20103;-85
2023/10/29 11:21:04;;;;;;;7.32;1.40;;;10.90;96.20;;;;;;6222958;28;20417;-84
2023/10/29 11:24:06;;;;;;;9.02;1.83;;;10.90;96.40;;;;;;6222075;28;20060;-84
2023/10/29 11:27:08;;;;;;;9.45;1.50;;;10.90;96.50;;;;;;6221737;28;20095;-83
2023/10/29 11:30:10;;;;;;;8.75;1.35;;;11.00;96.90;;;;;;6218605;28;20061;-83
2023/10/29 11:33:12;;;;;;;7.97;1.58;;;11.00;96.40;;;;;;6222407;28;20058;-83
2023/10/29 11:36:13;;;;;;;6.60;1.45;;;11.00;96.70;;;;;;6221204;28;20059;-84
2023/10/29 11:39:15;;;;;;;8.10;1.50;;;11.00;96.70;;;;;;6226583;28;20054;-89
2023/10/29 11:42:17;;;;;;;7.65;1.23;;;11.10;96.30;;;;;;6224601;28;20072;-83
2023/10/29 11:45:19;;;;;;;8.00;1.60;;;11.10;96.70;;;;;;6217985;28;20135;-83
2023/10/29 11:48:20;;;;;;;5.65;1.20;;;11.10;96.70;;;;;;6218615;28;20065;-84
2023/10/29 11:51:22;;;;;;;11.05;1.67;;;11.20;96.60;;;;;;6219916;28;20045;-85
2023/10/29 11:54:24;;;;;;;7.30;1.23;;;11.30;96.20;;;;;;6221923;28;20061;-88
2023/10/29 11:57:26;;;;;;;5.28;1.20;;;11.40;96.80;;;;;;6222321;28;20489;-87
2023/10/29 12:00:27;;;;;;;4.75;0.90;;;11.40;96.70;;;;;;6220302;28;20497;-88
2023/10/29 12:03:29;;;;;;;5.07;0.95;;;11.40;96.00;;;;;;6221442;28;20417;-86
2023/10/29 12:06:31;;;;;;;7.07;1.02;;;11.50;97.10;;;;;;6223483;28;20581;-85
2023/10/29 12:09:35;;;;;;;4.80;0.93;;;11.70;96.80;;;;;;6220946;28;20543;-86
2023/10/29 12:12:37;;;;;;;5.38;0.93;;;11.90;96.60;;;;;;6222742;28;20056;-82
2023/10/29 12:15:42;;;;;;;3.60;0.93;;;11.90;96.00;;;;;;6188411;28;20073;-87
2023/10/29 12:18:44;;;;;;;4.60;0.98;;;12.00;96.20;;;;;;6221807;28;20053;-86
2023/10/29 12:21:45;;;;;;;6.05;1.10;;;12.00;95.80;;;;;;6222439;28;20058;-86
2023/10/29 12:24:47;;;;;;;6.32;1.20;;;12.10;96.80;;;;;;6227125;28;20066;-89
2023/10/29 12:27:50;;;;;;;9.02;1.00;;;12.30;96.50;;;;;;6218762;28;20429;-81
2023/10/29 12:30:52;;;;;;;6.80;1.00;;;12.30;94.20;;;;;;6215902;28;20500;-83
2023/10/29 12:33:53;;;;;;;5.65;1.00;;;12.30;94.90;;;;;;6170466;28;20133;-84
2023/10/29 12:36:55;;;;;;;3.67;0.65;;;12.30;93.90;;;;;;6219043;28;20412;-84
2023/10/29 12:39:59;;;;;;;3.95;0.98;;;12.30;95.00;;;;;;6220496;28;20065;-84
2023/10/29 12:43:01;;;;;;;4.38;0.75;;;12.20;94.40;;;;;;6218190;28;20080;-83
2023/10/29 12:46:03;;;;;;;2.83;0.60;;;12.10;94.70;;;;;;6216093;28;20393;-85
2023/10/29 12:49:04;;;;;;;2.92;0.60;;;12.10;94.40;;;;;;6183274;28;20050;-83
2023/10/29 12:52:06;;;;;;;10.77;2.30;;;12.00;95.30;;;;;;6217619;28;20053;-83
2023/10/29 12:55:08;;;;;;;3.15;0.70;;;11.90;95.40;;;;;;6218292;28;20428;-84
2023/10/29 12:58:10;;;;;;;3.88;0.90;;;11.70;95.50;;;;;;6218079;28;20042;-84
2023/10/29 13:01:12;;;;;;;6.78;1.20;;;11.70;96.00;;;;;;6216915;28;20049;-84
2023/10/29 13:04:14;;;;;;;9.05;1.60;;;11.60;95.80;;;;;;6186093;28;20337;-85
2023/10/29 13:07:17;;;;;;;5.63;1.45;;;11.50;96.80;;;;;;6233753;28;20065;-84
2023/10/29 13:10:19;;;;;;;7.18;1.70;;;11.40;96.70;;;;;;6220775;28;20064;-87
2023/10/29 13:13:23;;;;;;;10.50;2.40;;;11.30;97.00;;;;;;6217117;28;20053;-84
2023/10/29 13:16:25;;;;;;;10.95;2.65;;;11.30;97.30;;;;;;6218702;28;20065;-87
2023/10/29 13:19:27;;;;;;;9.48;2.40;;;11.20;97.80;;;;;;6219166;28;20165;-88
2023/10/29 13:22:29;;;;;;;9.85;2.63;;;11.20;98.00;;;;;;6219908;28;20149;-88
2023/10/29 13:25:30;;;;;;;11.00;3.05;;;11.20;97.90;;;;;;6220852;28;20528;-88
2023/10/29 13:28:33;;;;;;;13.98;3.63;;;11.10;98.00;;;;;;6218523;28;20053;-84
2023/10/29 13:31:35;;;;;;;8.80;2.83;;;11.00;98.00;;;;;;6216320;28;20053;-89
2023/10/29 13:34:37;;;;;;;9.82;2.50;;;11.00;98.30;;;;;;6221923;28;20078;-88
2023/10/29 13:37:39;;;;;;;8.10;2.15;;;11.00;98.40;;;;;;6227120;28;20054;-89
2023/10/29 13:40:43;;;;;;;7.13;2.08;;;11.00;98.30;;;;;;6229475;28;20132;-88
2023/10/29 13:43:45;;;;;;;6.60;1.90;;;11.00;98.40;;;;;;6219273;28;20057;-89
2023/10/29 13:46:47;;;;;;;5.28;1.70;;;11.10;98.40;;;;;;6220236;28;20046;-89
2023/10/29 13:49:49;;;;;;;7.05;1.80;;;11.10;98.40;;;;;;6196647;28;20065;-89
2023/10/29 13:52:50;;;;;;;5.43;1.70;;;11.10;98.50;;;;;;6219409;28;20061;-89
2023/10/29 13:55:53;;;;;;;6.03;1.88;;;11.20;98.60;;;;;;6222368;28;20063;-88
2023/10/29 13:58:55;;;;;;;5.07;1.80;;;11.20;98.70;;;;;;6221803;28;20058;-91
2023/10/29 14:01:57;;;;;;;7.10;2.10;;;11.30;98.70;;;;;;6229491;28;20054;-90
2023/10/29 14:04:59;;;;;;;6.97;2.17;;;11.40;98.70;;;;;;6184543;28;20506;-89
2023/10/29 14:08:00;;;;;;;6.53;1.90;;;11.60;98.80;;;;;;6234476;28;20046;-88
2023/10/29 14:11:02;;;;;;;5.05;1.60;;;11.90;97.80;;;;;;6243394;28;20046;-89
2023/10/29 14:14:04;;;;;;;4.03;1.70;;;11.90;97.90;;;;;;6224501;28;20057;-90
2023/10/29 14:17:06;;;;;;;4.68;1.92;;;11.90;97.30;;;;;;6203380;28;20066;-87
2023/10/29 14:20:08;;;;;;;5.80;1.90;;;12.10;97.50;;;;;;6228070;28;20057;-87
2023/10/29 14:23:10;;;;;;;7.32;2.03;;;12.20;97.60;;;;;;6225568;28;20508;-85
2023/10/29 14:26:12;;;;;;;6.38;1.58;;;12.40;96.80;;;;;;6225648;28;20054;-84
2023/10/29 14:29:13;;;;;;;4.50;1.45;;;12.40;95.90;;;;;;6222386;28;20417;-86
2023/10/29 14:32:15;;;;;;;4.82;1.30;;;12.60;95.60;;;;;;6222588;28;20391;-84
2023/10/29 14:35:16;;;;;;;3.10;1.10;;;12.50;95.30;;;;;;6222165;28;20141;-86
2023/10/29 14:38:20;;;;;;;2.38;0.70;;;12.30;94.20;;;;;;6223480;28;20061;-84
2023/10/29 14:41:21;;;;;;;2.72;1.00;;;12.30;94.70;;;;;;6223438;28;20085;-86
2023/10/29 14:44:23;;;;;;;3.10;0.90;;;12.30;94.40;;;;;;6222249;28;20054;-85
2023/10/29 14:47:25;;;;;;;3.15;1.00;;;12.20;93.90;;;;;;6223576;28;20137;-85
2023/10/29 14:50:26;;;;;;;2.58;0.98;;;12.10;94.20;;;;;;6222854;28;20069;-85
2023/10/29 14:53:28;;;;;;;3.90;0.82;;;12.10;94.90;;;;;;6224736;28;20386;-83
2023/10/29 14:56:30;;;;;;;3.67;0.95;;;11.90;94.10;;;;;;6225236;28;20061;-87
2023/10/29 14:59:32;;;;;;;4.20;1.38;;;11.80;94.90;;;;;;6229949;28;20060;-86
2023/10/29 15:02:33;;;;;;;3.65;1.00;;;11.70;94.80;;;;;;6224361;28;20065;-85
2023/10/29 15:05:35;;;;;;;3.30;0.98;;;11.70;95.90;;;;;;6224646;28;20133;-84
2023/10/29 15:08:37;;;;;;;3.60;0.95;;;11.70;96.30;;;;;;6224686;28;20062;-84
2023/10/29 15:11:39;;;;;;;2.50;0.90;;;11.70;95.90;;;;;;6227126;28;20112;-87
2023/10/29 15:14:42;;;;;;;3.85;1.10;;;11.60;95.00;;;;;;6214822;28;20054;-86
2023/10/29 15:17:45;;;;;;;2.63;0.85;;;11.50;95.20;;;;;;6204587;28;20054;-88
2023/10/29 15:20:47;;;;;;;4.25;1.15;;;11.50;94.50;;;;;;6227590;28;20609;-87
2023/10/29 15:24:01;;;;;;;4.18;1.20;;;11.40;95.20;;;;;;6177818;28;20054;-87
2023/10/29 15:27:03;;;;;;;4.68;0.98;;;11.30;95.90;;;;;;6223790;28;20078;-87
2023/10/29 15:30:05;;;;;;;3.40;1.27;;;11.30;96.10;;;;;;6222226;28;20580;-89
2023/10/29 15:33:07;;;;;;;4.00;1.63;;;11.20;95.80;;;;;;6224809;28;20069;-88
2023/10/29 15:36:09;;;;;;;3.85;1.48;;;11.20;95.80;;;;;;6226088;28;20058;-85
2023/10/29 15:39:12;;;;;;;2.90;1.00;;;11.20;96.20;;;;;;6222622;28;20050;-86
2023/10/29 15:42:14;;;;;;;3.97;1.40;;;11.10;96.30;;;;;;6222291;28;20049;-85
2023/10/29 15:45:16;;;;;;;3.15;1.20;;;11.00;96.20;;;;;;6221768;28;20046;-85
2023/10/29 15:48:18;;;;;;;4.63;1.55;;;11.00;96.30;;;;;;6224549;28;20057;-85